Time,TemperatureF,DewpointF,PressureIn,WindDirection,WindDirectionDegrees,WindSpeedMPH,WindSpeedGustMPH,Humidity,HourlyPrecipIn,Conditions,Clouds,dailyrainin,SoftwareType,DateUTC
2013-06-11 00:02:00,61.0,61.0,-100.00,ENE,60,18.0,22.0,98,-99.99,,,-99.99,,2013-06-11 04:02:00,
2013-06-11 00:12:00,61.0,61.0,-100.00,ENE,60,20.0,25.0,98,-99.99,,,-99.99,,2013-06-11 04:12:00,
2013-06-11 00:22:00,61.0,61.0,-100.00,ENE,60,20.0,25.0,98,-99.99,,,-99.99,,2013-06-11 04:22:00,
2013-06-11 00:33:00,61.0,61.0,-100.00,ENE,60,20.0,25.0,98,-99.99,,,-99.99,,2013-06-11 04:33:00,
2013-06-11 00:42:00,61.0,61.0,-100.00,ENE,60,20.0,25.0,98,-99.99,,,-99.99,,2013-06-11 04:42:00,
2013-06-11 00:52:00,61.0,61.0,-100.00,ENE,70,20.0,25.0,98,-99.99,,,-99.99,,2013-06-11 04:52:00,
2013-06-11 01:02:00,61.0,61.0,-100.00,ENE,70,20.0,25.0,98,-99.99,,,-99.99,,2013-06-11 05:02:00,
2013-06-11 01:11:00,62.0,61.0,-100.00,ENE,70,20.0,25.0,98,-99.99,,,-99.99,,2013-06-11 05:11:00,
2013-06-11 01:22:00,62.0,61.0,-100.00,ENE,70,20.0,25.0,98,-99.99,,,-99.99,,2013-06-11 05:22:00,
2013-06-11 01:31:00,62.0,61.0,-100.00,ENE,70,20.0,25.0,98,-99.99,,,-99.99,,2013-06-11 05:31:00,
2013-06-11 01:41:00,62.0,61.0,-100.00,ENE,70,20.0,25.0,98,-99.99,,,-99.99,,2013-06-11 05:41:00,
2013-06-11 01:52:00,62.0,61.0,-100.00,ENE,60,18.0,22.0,98,-99.99,,,-99.99,,2013-06-11 05:52:00,
2013-06-11 02:02:00,62.0,61.0,-100.00,ENE,60,18.0,22.0,98,-99.99,,,-99.99,,2013-06-11 06:02:00,
2013-06-11 02:21:00,62.0,61.0,-100.00,ENE,70,16.0,20.0,98,-99.99,,,-99.99,,2013-06-11 06:21:00,
2013-06-11 02:31:00,62.0,61.0,-100.00,ENE,70,16.0,20.0,98,-99.99,,,-99.99,,2013-06-11 06:31:00,
2013-06-11 02:42:00,62.0,61.0,-100.00,ENE,70,16.0,20.0,98,-99.99,,,-99.99,,2013-06-11 06:42:00,
2013-06-11 02:52:00,62.0,62.0,-100.00,ENE,70,16.0,20.0,99,-99.99,,,-99.99,,2013-06-11 06:52:00,
2013-06-11 03:01:00,62.0,62.0,-100.00,ENE,70,16.0,20.0,99,-99.99,,,-99.99,,2013-06-11 07:01:00,
2013-06-11 03:11:00,62.0,62.0,-100.00,ENE,70,16.0,20.0,99,-99.99,,,-99.99,,2013-06-11 07:11:00,
2013-06-11 03:21:00,62.0,62.0,-100.00,ENE,60,18.0,20.0,98,-99.99,,,-99.99,,2013-06-11 07:21:00,
2013-06-11 03:32:00,62.0,62.0,-100.00,ENE,60,18.0,20.0,98,-99.99,,,-99.99,,2013-06-11 07:32:00,
2013-06-11 03:42:00,62.0,62.0,-100.00,ENE,60,18.0,20.0,98,-99.99,,,-99.99,,2013-06-11 07:42:00,
2013-06-11 03:52:00,62.0,62.0,-100.00,ENE,60,16.0,20.0,99,-99.99,,,-99.99,,2013-06-11 07:52:00,
2013-06-11 04:02:00,62.0,62.0,-100.00,ENE,60,16.0,20.0,99,-99.99,,,-99.99,,2013-06-11 08:02:00,
2013-06-11 04:11:00,62.0,62.0,-100.00,ENE,60,16.0,20.0,99,-99.99,,,-99.99,,2013-06-11 08:11:00,
2013-06-11 04:21:00,62.0,62.0,-100.00,NE,50,16.0,18.0,99,-99.99,,,-99.99,,2013-06-11 08:21:00,
2013-06-11 04:32:00,62.0,62.0,-100.00,NE,50,16.0,18.0,99,-99.99,,,-99.99,,2013-06-11 08:32:00,
2013-06-11 04:41:00,62.0,62.0,-100.00,NE,50,16.0,18.0,99,-99.99,,,-99.99,,2013-06-11 08:41:00,
2013-06-11 04:51:00,63.0,63.0,-100.00,ENE,60,11.0,16.0,99,-99.99,,,-99.99,,2013-06-11 08:51:00,
2013-06-11 05:01:00,63.0,63.0,-100.00,ENE,60,11.0,16.0,99,-99.99,,,-99.99,,2013-06-11 09:01:00,
2013-06-11 05:11:00,63.0,63.0,-100.00,ENE,60,11.0,16.0,99,-99.99,,,-99.99,,2013-06-11 09:11:00,
2013-06-11 05:21:00,63.0,63.0,-100.00,ENE,60,4.0,9.0,98,-99.99,,,-99.99,,2013-06-11 09:21:00,
2013-06-11 05:33:00,63.0,63.0,-100.00,ENE,60,4.0,9.0,98,-99.99,,,-99.99,,2013-06-11 09:33:00,
2013-06-11 05:42:00,63.0,63.0,-100.00,ENE,60,4.0,9.0,98,-99.99,,,-99.99,,2013-06-11 09:42:00,
2013-06-11 05:53:00,63.0,63.0,-100.00,ENE,60,4.0,4.0,99,-99.99,,,-99.99,,2013-06-11 09:53:00,
2013-06-11 06:03:00,63.0,63.0,-100.00,ENE,60,4.0,4.0,99,-99.99,,,-99.99,,2013-06-11 10:03:00,
2013-06-11 06:12:00,63.0,63.0,-100.00,ENE,60,4.0,4.0,99,-99.99,,,-99.99,,2013-06-11 10:12:00,
2013-06-11 06:22:00,63.0,62.0,-100.00,NNE,30,4.0,7.0,98,-99.99,,,-99.99,,2013-06-11 10:22:00,
2013-06-11 06:32:00,63.0,62.0,-100.00,NNE,30,4.0,7.0,98,-99.99,,,-99.99,,2013-06-11 10:32:00,
2013-06-11 06:42:00,63.0,62.0,-100.00,NNE,30,4.0,7.0,98,-99.99,,,-99.99,,2013-06-11 10:42:00,
2013-06-11 06:52:00,63.0,63.0,-100.00,NE,50,2.0,4.0,99,-99.99,,,-99.99,,2013-06-11 10:52:00,
2013-06-11 07:02:00,63.0,63.0,-100.00,NE,50,2.0,4.0,99,-99.99,,,-99.99,,2013-06-11 11:02:00,
2013-06-11 07:11:00,63.0,63.0,-100.00,NE,50,2.0,4.0,99,-99.99,,,-99.99,,2013-06-11 11:11:00,
2013-06-11 08:01:00,63.0,63.0,-100.00,East,80,2.0,2.0,99,-99.99,,,-99.99,,2013-06-11 12:01:00,
2013-06-11 08:11:00,63.0,63.0,-100.00,North,10,2.0,4.0,99,-99.99,,,-99.99,,2013-06-11 12:11:00,
2013-06-11 08:21:00,63.0,63.0,-100.00,North,10,2.0,4.0,99,-99.99,,,-99.99,,2013-06-11 12:21:00,
2013-06-11 08:32:00,63.0,63.0,-100.00,North,10,2.0,4.0,99,-99.99,,,-99.99,,2013-06-11 12:32:00,
2013-06-11 08:41:00,63.0,63.0,-100.00,North,10,2.0,4.0,99,-99.99,,,-99.99,,2013-06-11 12:41:00,
2013-06-11 08:51:00,64.0,63.0,-100.00,North,0,0.0,2.0,99,-99.99,,,-99.99,,2013-06-11 12:51:00,
2013-06-11 09:02:00,64.0,63.0,-100.00,North,0,0.0,2.0,99,-99.99,,,-99.99,,2013-06-11 13:02:00,
2013-06-11 09:11:00,65.0,64.0,-100.00,North,0,0.0,2.0,98,-99.99,,,-99.99,,2013-06-11 13:11:00,
2013-06-11 09:31:00,65.0,64.0,-100.00,North,0,0.0,2.0,98,-99.99,,,-99.99,,2013-06-11 13:31:00,
2013-06-11 09:42:00,65.0,64.0,-100.00,North,0,0.0,2.0,98,-99.99,,,-99.99,,2013-06-11 13:42:00,
2013-06-11 09:52:00,66.0,66.0,-100.00,WSW,240,9.0,13.0,99,-99.99,,,-99.99,,2013-06-11 13:52:00,
2013-06-11 10:01:00,66.0,66.0,-100.00,WSW,240,9.0,13.0,99,-99.99,,,-99.99,,2013-06-11 14:01:00,
2013-06-11 10:11:00,67.0,66.0,-100.00,SW,230,9.0,11.0,96,-99.99,,,-99.99,,2013-06-11 14:11:00,
2013-06-11 10:21:00,67.0,66.0,-100.00,SW,230,9.0,11.0,96,-99.99,,,-99.99,,2013-06-11 14:21:00,
2013-06-11 10:31:00,67.0,66.0,-100.00,SW,230,9.0,11.0,96,-99.99,,,-99.99,,2013-06-11 14:31:00,
2013-06-11 11:21:00,68.0,65.0,-100.00,SW,230,9.0,11.0,87,-99.99,,,-99.99,,2013-06-11 15:21:00,
2013-06-11 11:32:00,68.0,65.0,-100.00,SW,230,9.0,11.0,87,-99.99,,,-99.99,,2013-06-11 15:32:00,
2013-06-11 11:42:00,68.0,65.0,-100.00,SW,230,9.0,11.0,87,-99.99,,,-99.99,,2013-06-11 15:42:00,
2013-06-11 11:52:00,69.0,64.0,-100.00,SW,220,9.0,11.0,86,-99.99,,,-99.99,,2013-06-11 15:52:00,
2013-06-11 12:02:00,69.0,64.0,-100.00,SW,220,9.0,11.0,86,-99.99,,,-99.99,,2013-06-11 16:02:00,
2013-06-11 12:12:00,69.0,64.0,-100.00,SW,220,9.0,11.0,86,-99.99,,,-99.99,,2013-06-11 16:12:00,
2013-06-11 12:22:00,70.0,64.0,-100.00,SW,220,11.0,13.0,82,-99.99,,,-99.99,,2013-06-11 16:22:00,
2013-06-11 12:32:00,70.0,64.0,-100.00,SW,220,11.0,13.0,82,-99.99,,,-99.99,,2013-06-11 16:32:00,
2013-06-11 12:42:00,70.0,64.0,-100.00,SW,220,11.0,13.0,82,-99.99,,,-99.99,,2013-06-11 16:42:00,
2013-06-11 12:52:00,70.0,64.0,-100.00,SW,220,11.0,11.0,80,-99.99,,,-99.99,,2013-06-11 16:52:00,
2013-06-11 13:02:00,70.0,64.0,-100.00,SW,220,11.0,11.0,80,-99.99,,,-99.99,,2013-06-11 17:02:00,
2013-06-11 13:12:00,70.0,64.0,-100.00,SW,220,11.0,11.0,80,-99.99,,,-99.99,,2013-06-11 17:12:00,
2013-06-11 13:22:00,70.0,64.0,-100.00,SW,220,9.0,11.0,79,-99.99,,,-99.99,,2013-06-11 17:22:00,
2013-06-11 13:42:00,70.0,64.0,-100.00,SW,220,9.0,11.0,79,-99.99,,,-99.99,,2013-06-11 17:42:00,
2013-06-11 14:02:00,70.0,64.0,-100.00,SW,220,9.0,11.0,80,-99.99,,,-99.99,,2013-06-11 18:02:00,
2013-06-11 14:11:00,70.0,64.0,-100.00,SW,220,9.0,11.0,80,-99.99,,,-99.99,,2013-06-11 18:11:00,
2013-06-11 14:21:00,71.0,64.0,-100.00,SSW,210,9.0,13.0,77,-99.99,,,-99.99,,2013-06-11 18:21:00,
2013-06-11 14:31:00,71.0,64.0,-100.00,SSW,210,9.0,13.0,77,-99.99,,,-99.99,,2013-06-11 18:31:00,
2013-06-11 14:42:00,71.0,64.0,-100.00,SSW,210,9.0,13.0,77,-99.99,,,-99.99,,2013-06-11 18:42:00,
2013-06-11 14:52:00,71.0,63.0,-100.00,SW,220,11.0,13.0,73,-99.99,,,-99.99,,2013-06-11 18:52:00,
2013-06-11 15:01:00,71.0,63.0,-100.00,SW,220,11.0,13.0,73,-99.99,,,-99.99,,2013-06-11 19:01:00,
2013-06-11 15:11:00,71.0,62.0,-100.00,SW,220,11.0,16.0,73,-99.99,,,-99.99,,2013-06-11 19:11:00,
2013-06-11 15:21:00,71.0,62.0,-100.00,SW,220,11.0,16.0,73,-99.99,,,-99.99,,2013-06-11 19:21:00,
2013-06-11 15:32:00,71.0,62.0,-100.00,SW,220,11.0,16.0,73,-99.99,,,-99.99,,2013-06-11 19:32:00,
2013-06-11 15:41:00,71.0,62.0,-100.00,SW,220,11.0,16.0,73,-99.99,,,-99.99,,2013-06-11 19:41:00,
2013-06-11 15:52:00,71.0,63.0,-100.00,SW,230,13.0,18.0,74,-99.99,,,-99.99,,2013-06-11 19:52:00,
2013-06-11 16:01:00,71.0,63.0,-100.00,SW,230,13.0,18.0,74,-99.99,,,-99.99,,2013-06-11 20:01:00,
2013-06-11 16:11:00,69.0,63.0,-100.00,WSW,250,11.0,22.0,81,-99.99,,,-99.99,,2013-06-11 20:11:00,
2013-06-11 16:21:00,69.0,63.0,-100.00,WSW,250,11.0,22.0,81,-99.99,,,-99.99,,2013-06-11 20:21:00,
2013-06-11 16:32:00,69.0,63.0,-100.00,WSW,250,11.0,22.0,81,-99.99,,,-99.99,,2013-06-11 20:32:00,
2013-06-11 16:41:00,69.0,63.0,-100.00,WSW,250,11.0,22.0,81,-99.99,,,-99.99,,2013-06-11 20:41:00,
2013-06-11 16:52:00,69.0,64.0,-100.00,WSW,250,9.0,13.0,82,-99.99,,,-99.99,,2013-06-11 20:52:00,
2013-06-11 17:01:00,69.0,64.0,-100.00,WSW,250,9.0,13.0,82,-99.99,,,-99.99,,2013-06-11 21:01:00,
2013-06-11 17:11:00,71.0,64.0,-100.00,WSW,240,16.0,18.0,78,-99.99,,,-99.99,,2013-06-11 21:11:00,
2013-06-11 17:21:00,71.0,64.0,-100.00,WSW,240,16.0,18.0,78,-99.99,,,-99.99,,2013-06-11 21:21:00,
2013-06-11 17:32:00,71.0,64.0,-100.00,WSW,240,16.0,18.0,78,-99.99,,,-99.99,,2013-06-11 21:32:00,
2013-06-11 17:42:00,71.0,64.0,-100.00,WSW,240,16.0,18.0,78,-99.99,,,-99.99,,2013-06-11 21:42:00,
2013-06-11 17:52:00,72.0,64.0,-100.00,WSW,250,13.0,22.0,77,-99.99,,,-99.99,,2013-06-11 21:52:00,
2013-06-11 18:03:00,72.0,64.0,-100.00,WSW,250,13.0,22.0,77,-99.99,,,-99.99,,2013-06-11 22:03:00,
2013-06-11 18:12:00,75.0,63.0,-100.00,West,260,18.0,22.0,67,-99.99,,,-99.99,,2013-06-11 22:12:00,
2013-06-11 18:22:00,75.0,63.0,-100.00,West,260,18.0,22.0,67,-99.99,,,-99.99,,2013-06-11 22:22:00,
2013-06-11 18:32:00,75.0,63.0,-100.00,West,260,18.0,22.0,67,-99.99,,,-99.99,,2013-06-11 22:32:00,
2013-06-11 18:42:00,75.0,63.0,-100.00,West,260,18.0,22.0,67,-99.99,,,-99.99,,2013-06-11 22:42:00,
2013-06-11 18:52:00,74.0,63.0,-100.00,West,260,18.0,31.0,69,-99.99,,,-99.99,,2013-06-11 22:52:00,
2013-06-11 19:02:00,74.0,63.0,-100.00,West,260,18.0,31.0,69,-99.99,,,-99.99,,2013-06-11 23:02:00,
2013-06-11 19:11:00,72.0,63.0,-100.00,West,270,18.0,22.0,71,-99.99,,,-99.99,,2013-06-11 23:11:00,
2013-06-11 19:21:00,72.0,63.0,-100.00,West,270,18.0,22.0,71,-99.99,,,-99.99,,2013-06-11 23:21:00,
2013-06-11 19:32:00,72.0,63.0,-100.00,West,270,18.0,22.0,71,-99.99,,,-99.99,,2013-06-11 23:32:00,
2013-06-11 19:42:00,72.0,63.0,-100.00,West,270,18.0,22.0,71,-99.99,,,-99.99,,2013-06-11 23:42:00,
2013-06-11 19:52:00,71.0,63.0,-100.00,West,270,16.0,20.0,77,-99.99,,,-99.99,,2013-06-11 23:52:00,
2013-06-11 20:01:00,71.0,63.0,-100.00,West,270,16.0,20.0,77,-99.99,,,-99.99,,2013-06-12 00:01:00,
2013-06-11 20:11:00,70.0,63.0,-100.00,West,270,13.0,16.0,78,-99.99,,,-99.99,,2013-06-12 00:11:00,
2013-06-11 20:21:00,70.0,63.0,-100.00,West,270,13.0,16.0,78,-99.99,,,-99.99,,2013-06-12 00:21:00,
2013-06-11 20:31:00,70.0,63.0,-100.00,West,270,13.0,16.0,78,-99.99,,,-99.99,,2013-06-12 00:31:00,
2013-06-11 20:41:00,70.0,63.0,-100.00,West,270,13.0,16.0,78,-99.99,,,-99.99,,2013-06-12 00:41:00,
2013-06-11 21:21:00,70.0,63.0,-100.00,West,280,11.0,16.0,78,-99.99,,,-99.99,,2013-06-12 01:21:00,
2013-06-11 21:31:00,70.0,63.0,-100.00,West,280,11.0,16.0,78,-99.99,,,-99.99,,2013-06-12 01:31:00,
2013-06-11 21:41:00,70.0,63.0,-100.00,West,280,11.0,16.0,78,-99.99,,,-99.99,,2013-06-12 01:41:00,
2013-06-11 21:52:00,70.0,63.0,-100.00,West,270,11.0,20.0,79,-99.99,,,-99.99,,2013-06-12 01:52:00,
2013-06-11 22:01:00,70.0,63.0,-100.00,West,270,11.0,20.0,79,-99.99,,,-99.99,,2013-06-12 02:01:00,
2013-06-11 22:31:00,72.0,60.0,-100.00,WNW,290,18.0,25.0,66,-99.99,,,-99.99,,2013-06-12 02:31:00,
2013-06-11 22:42:00,72.0,60.0,-100.00,WNW,290,18.0,25.0,66,-99.99,,,-99.99,,2013-06-12 02:42:00,
2013-06-11 22:51:00,71.0,60.0,-100.00,WNW,290,16.0,25.0,66,-99.99,,,-99.99,,2013-06-12 02:51:00,
2013-06-11 23:01:00,71.0,60.0,-100.00,WNW,290,16.0,25.0,66,-99.99,,,-99.99,,2013-06-12 03:01:00,
2013-06-11 23:11:00,71.0,60.0,-100.00,WNW,290,16.0,25.0,66,-99.99,,,-99.99,,2013-06-12 03:11:00,
2013-06-11 23:21:00,71.0,59.0,-100.00,West,280,16.0,27.0,65,-99.99,,,-99.99,,2013-06-12 03:21:00,
2013-06-11 23:32:00,71.0,59.0,-100.00,West,280,16.0,27.0,65,-99.99,,,-99.99,,2013-06-12 03:32:00,
2013-06-11 23:42:00,71.0,59.0,-100.00,West,280,16.0,27.0,65,-99.99,,,-99.99,,2013-06-12 03:42:00,
2013-06-11 23:53:00,70.0,57.0,-100.00,West,280,20.0,27.0,63,-99.99,,,-99.99,,2013-06-12 03:53:00,